Time;durP1;ratioP1;P1;durP2;ratioP2;P2;SDS_P1;SDS_P2;PMS_P1;PMS_P2;Temp;Humidity;BMP_temperature;BMP_pressure;BME280_temperature;BME280_humidity;BME280_pressure;Samples;Min_cycle;Max_cycle;Signal;HPM_P1;HPM_P2
2022/01/05 00:00:34;;;;;;;5.17;2.33;;;2.90;1.00;;;;;;5112173;28;20449;-64
2022/01/05 00:03:00;;;;;;;3.20;2.10;;;2.90;1.00;;;;;;5112260;28;20448;-64
2022/01/05 00:05:27;;;;;;;4.67;2.83;;;2.90;1.00;;;;;;5112868;28;20474;-63
2022/01/05 00:07:54;;;;;;;8.17;3.00;;;2.80;1.00;;;;;;5112645;28;20449;-64
2022/01/05 00:10:20;;;;;;;4.97;2.40;;;2.80;1.00;;;;;;5112100;28;20465;-64
2022/01/05 00:12:48;;;;;;;6.23;2.60;;;2.80;1.00;;;;;;5112025;28;20485;-64
2022/01/05 00:15:15;;;;;;;5.47;2.20;;;2.80;1.00;;;;;;5111951;28;20457;-64
2022/01/05 00:17:42;;;;;;;4.17;2.00;;;2.80;1.00;;;;;;5111938;28;20883;-64
2022/01/05 00:20:10;;;;;;;5.33;2.00;;;2.80;1.00;;;;;;5111550;28;20465;-64
2022/01/05 00:22:36;;;;;;;7.33;2.20;;;2.80;1.00;;;;;;5112590;28;20475;-64
2022/01/05 00:25:04;;;;;;;4.00;1.90;;;2.80;1.00;;;;;;5115690;27;20498;-64
2022/01/05 00:27:31;;;;;;;7.67;2.23;;;2.80;1.00;;;;;;5115393;28;20503;-64
2022/01/05 00:29:59;;;;;;;5.33;1.80;;;2.80;1.00;;;;;;5115464;27;20491;-62
2022/01/05 00:32:26;;;;;;;4.67;2.03;;;2.80;1.00;;;;;;5115150;27;20477;-64
2022/01/05 00:34:53;;;;;;;6.67;2.40;;;2.90;1.00;;;;;;5115697;28;20475;-64
2022/01/05 00:37:20;;;;;;;4.67;2.10;;;2.80;1.00;;;;;;5115167;28;20537;-64
2022/01/05 00:39:47;;;;;;;5.27;2.23;;;2.90;1.00;;;;;;5115534;28;20461;-64
2022/01/05 00:42:14;;;;;;;4.73;2.50;;;2.90;1.00;;;;;;5115364;28;20498;-64
2022/01/05 00:44:41;;;;;;;6.97;3.23;;;2.90;1.00;;;;;;5114798;28;20520;-64
2022/01/05 00:47:09;;;;;;;6.50;3.20;;;2.80;1.00;;;;;;5115261;28;20503;-64
2022/01/05 00:49:36;;;;;;;6.47;3.70;;;2.90;1.00;;;;;;5114978;28;20470;-64
2022/01/05 00:52:03;;;;;;;7.00;3.60;;;2.70;1.00;;;;;;5115064;28;20950;-64
2022/01/05 00:54:30;;;;;;;8.70;3.60;;;2.60;1.00;;;;;;5115163;28;20445;-64
2022/01/05 00:56:57;;;;;;;8.57;3.77;;;2.50;1.00;;;;;;5114682;28;20448;-64
2022/01/05 00:59:24;;;;;;;7.90;3.90;;;2.50;1.00;;;;;;5114737;28;20503;-64
2022/01/05 01:01:50;;;;;;;7.63;4.67;;;2.50;1.00;;;;;;5114812;28;20449;-64
2022/01/05 01:04:18;;;;;;;9.33;4.23;;;2.40;1.00;;;;;;5114967;28;20510;-64
2022/01/05 01:06:45;;;;;;;12.53;4.83;;;2.40;1.00;;;;;;5115004;28;20453;-63
2022/01/05 01:09:13;;;;;;;12.03;5.33;;;2.40;1.00;;;;;;5114990;28;20522;-64
2022/01/05 01:11:39;;;;;;;9.57;5.17;;;2.40;1.00;;;;;;5115385;28;20477;-64
2022/01/05 01:14:06;;;;;;;12.87;4.70;;;2.30;1.00;;;;;;5114334;28;21001;-63
2022/01/05 01:16:33;;;;;;;11.87;6.13;;;2.30;1.00;;;;;;5114547;28;20503;-63
2022/01/05 01:19:00;;;;;;;11.87;6.43;;;2.40;1.00;;;;;;5114578;28;20462;-64
2022/01/05 01:21:27;;;;;;;12.40;6.87;;;2.40;1.00;;;;;;5114340;28;20448;-64
2022/01/05 01:23:55;;;;;;;13.07;7.17;;;2.40;1.00;;;;;;5114322;28;20936;-64
2022/01/05 01:26:24;;;;;;;13.77;6.23;;;2.40;1.00;;;;;;5113943;28;20445;-64
2022/01/05 01:28:51;;;;;;;11.70;6.87;;;2.50;1.00;;;;;;5114584;28;20457;-64
2022/01/05 01:31:18;;;;;;;11.70;6.20;;;2.50;1.00;;;;;;5114516;28;20437;-64
2022/01/05 01:33:46;;;;;;;11.93;6.70;;;2.50;1.00;;;;;;5114223;28;20485;-63
2022/01/05 01:36:13;;;;;;;13.00;6.60;;;2.50;1.00;;;;;;5113253;28;20470;-63
2022/01/05 01:38:41;;;;;;;10.67;6.73;;;2.50;1.00;;;;;;5114004;28;20464;-63
2022/01/05 01:41:09;;;;;;;14.53;6.67;;;2.50;1.00;;;;;;5113973;28;20502;-64
2022/01/05 01:43:36;;;;;;;13.63;7.50;;;2.60;1.00;;;;;;5114056;28;20445;-64
2022/01/05 01:46:04;;;;;;;14.60;7.30;;;2.60;1.00;;;;;;5113918;28;20557;-64
2022/01/05 01:48:31;;;;;;;8.10;5.73;;;2.60;1.00;;;;;;5113931;28;20518;-64
2022/01/05 01:50:58;;;;;;;15.80;6.50;;;2.60;1.00;;;;;;5113856;28;20937;-64
2022/01/05 01:53:25;;;;;;;13.27;6.93;;;2.60;1.00;;;;;;5113689;28;20477;-64
2022/01/05 01:55:55;;;;;;;22.00;6.20;;;2.60;1.00;;;;;;5113850;28;20445;-63
2022/01/05 01:58:25;;;;;;;12.13;5.60;;;2.60;1.00;;;;;;5113983;28;20479;-64
2022/01/05 02:00:52;;;;;;;11.77;5.33;;;2.60;1.00;;;;;;5113914;28;20442;-64
2022/01/05 02:03:19;;;;;;;11.57;5.70;;;2.60;1.00;;;;;;5113553;27;20506;-64
2022/01/05 02:05:46;;;;;;;11.90;5.33;;;2.60;1.00;;;;;;5113709;28;20448;-64
2022/01/05 02:08:12;;;;;;;10.60;5.03;;;2.60;1.00;;;;;;5113087;28;20445;-64
2022/01/05 02:10:39;;;;;;;12.97;5.33;;;2.60;1.00;;;;;;5113673;28;20479;-64
2022/01/05 02:13:07;;;;;;;12.30;5.00;;;2.60;1.00;;;;;;5113400;28;20485;-64
2022/01/05 02:15:34;;;;;;;7.93;4.67;;;2.60;1.00;;;;;;5113740;28;21028;-64
2022/01/05 02:18:20;;;;;;;10.37;4.20;;;2.50;1.00;;;;;;5113689;28;20458;-64
2022/01/05 02:20:49;;;;;;;9.60;5.10;;;2.50;1.00;;;;;;5113900;28;20461;-64
2022/01/05 02:23:16;;;;;;;11.27;4.13;;;2.60;1.00;;;;;;5113498;28;20442;-64
2022/01/05 02:25:43;;;;;;;9.53;4.07;;;2.50;1.00;;;;;;5113167;28;20456;-65
2022/01/05 02:28:09;;;;;;;10.17;4.30;;;2.50;1.00;;;;;;5113271;28;20437;-64
2022/01/05 02:30:39;;;;;;;15.20;5.33;;;2.50;1.00;;;;;;5113325;28;20456;-64
2022/01/05 02:33:05;;;;;;;20.63;5.80;;;2.50;1.00;;;;;;5112994;28;20572;-64
2022/01/05 02:35:32;;;;;;;11.10;6.00;;;2.50;1.00;;;;;;5113090;28;20441;-64
2022/01/05 02:38:00;;;;;;;14.73;6.93;;;2.60;1.00;;;;;;5112536;28;20461;-64
2022/01/05 02:40:27;;;;;;;15.80;7.50;;;2.60;1.00;;;;;;5113039;28;20522;-64
2022/01/05 02:42:56;;;;;;;13.20;8.00;;;2.60;1.00;;;;;;5112791;27;20866;-64
2022/01/05 02:45:22;;;;;;;16.03;7.33;;;2.60;1.00;;;;;;5112719;28;20483;-64
2022/01/05 02:47:50;;;;;;;18.37;8.63;;;2.60;1.00;;;;;;5113027;28;20441;-64
2022/01/05 02:50:16;;;;;;;19.00;9.13;;;2.60;1.00;;;;;;5112931;27;20469;-64
2022/01/05 02:52:43;;;;;;;11.97;6.67;;;2.60;1.00;;;;;;5112830;28;20481;-64
2022/01/05 02:55:12;;;;;;;23.13;9.33;;;2.60;1.00;;;;;;5112520;28;20498;-64
2022/01/05 02:57:39;;;;;;;21.40;9.77;;;2.60;1.00;;;;;;5112686;28;20532;-64
2022/01/05 03:00:08;;;;;;;18.43;9.37;;;2.60;1.00;;;;;;5112173;28;20461;-64
2022/01/05 03:02:34;;;;;;;18.07;9.20;;;2.60;1.00;;;;;;5112866;28;20442;-64
2022/01/05 03:05:01;;;;;;;20.10;10.33;;;2.60;1.00;;;;;;5112774;28;20502;-64
2022/01/05 03:07:28;;;;;;;21.07;10.37;;;2.60;1.00;;;;;;5112447;28;20456;-64
2022/01/05 03:09:55;;;;;;;17.93;10.47;;;2.60;1.00;;;;;;5112577;28;20469;-64
2022/01/05 03:12:23;;;;;;;20.27;9.70;;;2.60;1.00;;;;;;5112325;28;20477;-63
2022/01/05 03:14:50;;;;;;;19.97;9.30;;;2.60;1.00;;;;;;5112399;28;20445;-64
2022/01/05 03:17:16;;;;;;;15.60;8.90;;;2.60;1.00;;;;;;5112602;28;20441;-64
2022/01/05 03:19:43;;;;;;;16.87;9.00;;;2.60;1.00;;;;;;5112505;28;20511;-64
2022/01/05 03:22:10;;;;;;;16.13;8.90;;;2.50;1.00;;;;;;5112466;28;20454;-63
2022/01/05 03:24:36;;;;;;;15.33;5.93;;;2.50;1.00;;;;;;5112254;28;20442;-64
2022/01/05 03:27:04;;;;;;;16.23;6.47;;;2.50;1.00;;;;;;5112362;28;20467;-64
2022/01/05 03:29:32;;;;;;;15.93;7.47;;;2.40;1.00;;;;;;5112845;28;20849;-64
2022/01/05 03:31:59;;;;;;;13.10;6.97;;;2.40;1.00;;;;;;5112406;28;20441;-64
2022/01/05 03:34:27;;;;;;;8.90;5.80;;;2.40;1.00;;;;;;5112379;28;20508;-63
2022/01/05 03:36:55;;;;;;;21.27;5.07;;;2.30;1.00;;;;;;5112060;28;20449;-64
2022/01/05 03:39:22;;;;;;;13.57;4.80;;;2.30;1.00;;;;;;5112273;28;20469;-63
2022/01/05 03:41:49;;;;;;;12.43;6.80;;;2.20;1.00;;;;;;5112232;28;20449;-64
2022/01/05 03:44:15;;;;;;;12.37;5.77;;;2.10;1.00;;;;;;5112294;28;20445;-64
2022/01/05 03:46:43;;;;;;;14.77;6.00;;;2.10;1.00;;;;;;5112029;28;20454;-64
2022/01/05 03:49:10;;;;;;;15.43;5.53;;;2.10;1.00;;;;;;5111802;28;20469;-64
2022/01/05 03:51:37;;;;;;;16.40;5.63;;;2.00;1.00;;;;;;5112224;28;20460;-64
2022/01/05 03:54:04;;;;;;;15.10;6.43;;;2.00;1.00;;;;;;5112218;28;20481;-64
2022/01/05 03:56:31;;;;;;;10.33;3.93;;;2.00;1.00;;;;;;5111870;28;20449;-63
2022/01/05 03:58:58;;;;;;;15.03;4.67;;;2.00;1.00;;;;;;5114933;28;20469;-64
2022/01/05 04:01:24;;;;;;;10.23;5.00;;;2.00;1.00;;;;;;5116042;28;20506;-64
2022/01/05 04:03:52;;;;;;;8.70;4.67;;;2.00;1.00;;;;;;5116085;28;20475;-64
2022/01/05 04:06:19;;;;;;;8.57;4.50;;;1.90;1.00;;;;;;5115803;28;20445;-64
2022/01/05 04:08:46;;;;;;;12.73;4.50;;;1.80;1.00;;;;;;5116877;28;20465;-64
2022/01/05 04:11:12;;;;;;;9.33;4.27;;;1.80;1.00;;;;;;5115848;28;20449;-64
2022/01/05 04:13:39;;;;;;;12.67;5.10;;;1.80;1.00;;;;;;5115747;28;20477;-63
2022/01/05 04:16:06;;;;;;;16.30;4.80;;;1.70;1.00;;;;;;5115805;28;20493;-64
2022/01/05 04:18:33;;;;;;;11.93;4.57;;;1.70;1.00;;;;;;5115834;27;20515;-64
2022/01/05 04:21:01;;;;;;;16.70;4.57;;;1.70;1.00;;;;;;5115619;28;20453;-63
2022/01/05 04:23:27;;;;;;;14.23;4.57;;;1.70;1.00;;;;;;5115529;28;20446;-64
2022/01/05 04:25:54;;;;;;;12.97;4.67;;;1.70;1.00;;;;;;5115513;28;20452;-64
2022/01/05 04:28:21;;;;;;;17.77;4.90;;;1.60;1.00;;;;;;5115494;28;20446;-64
2022/01/05 04:30:48;;;;;;;11.37;3.90;;;1.50;1.00;;;;;;5115558;28;20445;-64
2022/01/05 04:33:14;;;;;;;12.33;4.03;;;1.50;1.00;;;;;;5115788;27;20480;-64
2022/01/05 04:35:41;;;;;;;8.63;4.07;;;1.50;1.00;;;;;;5115404;28;20445;-62
2022/01/05 04:38:09;;;;;;;14.87;4.43;;;1.50;1.00;;;;;;5114806;28;20498;-64
2022/01/05 04:40:36;;;;;;;10.20;3.93;;;1.50;1.00;;;;;;5115950;28;20444;-64
2022/01/05 04:43:02;;;;;;;9.83;4.00;;;1.50;1.00;;;;;;5115840;28;20980;-64
2022/01/05 04:45:29;;;;;;;8.10;3.60;;;1.40;1.00;;;;;;5116357;28;20539;-63
2022/01/05 04:47:56;;;;;;;12.33;4.43;;;1.40;1.00;;;;;;5116123;28;20865;-64
2022/01/05 04:50:23;;;;;;;12.17;3.60;;;1.30;1.00;;;;;;5115200;28;20461;-64
2022/01/05 04:52:49;;;;;;;12.97;4.37;;;1.30;1.00;;;;;;5115047;28;20483;-64
2022/01/05 04:55:17;;;;;;;11.63;4.10;;;1.30;1.00;;;;;;5115152;28;20441;-64
2022/01/05 04:57:44;;;;;;;12.43;4.30;;;1.30;1.00;;;;;;5115001;28;20445;-64
2022/01/05 05:00:11;;;;;;;10.27;3.27;;;1.30;1.00;;;;;;5114694;27;20504;-64
2022/01/05 05:02:38;;;;;;;9.23;3.73;;;1.30;1.00;;;;;;5114793;28;20439;-63
2022/01/05 05:05:05;;;;;;;11.77;3.87;;;1.30;1.00;;;;;;5114983;28;20459;-64
2022/01/05 05:07:32;;;;;;;14.60;4.50;;;1.30;1.00;;;;;;5114771;28;20449;-64
2022/01/05 05:09:59;;;;;;;15.13;4.00;;;1.20;1.00;;;;;;5114913;28;20457;-64
2022/01/05 05:12:27;;;;;;;14.30;3.70;;;1.20;1.00;;;;;;5114715;28;20857;-64
2022/01/05 05:14:54;;;;;;;8.83;2.57;;;1.20;1.00;;;;;;5114492;28;20481;-64
2022/01/05 05:17:20;;;;;;;11.77;4.03;;;1.10;1.00;;;;;;5114373;28;20445;-63
2022/01/05 05:19:47;;;;;;;12.17;2.83;;;1.10;1.00;;;;;;5114194;28;20463;-63
2022/01/05 05:22:14;;;;;;;11.50;3.67;;;1.10;1.00;;;;;;5114656;28;20512;-64
2022/01/05 05:24:40;;;;;;;14.37;2.90;;;1.10;1.00;;;;;;5114257;28;20440;-63
2022/01/05 05:27:07;;;;;;;9.60;2.57;;;1.10;1.00;;;;;;5114347;28;20582;-64
2022/01/05 05:29:35;;;;;;;4.77;2.53;;;1.10;1.00;;;;;;5114336;28;21013;-64
2022/01/05 05:32:02;;;;;;;7.97;3.80;;;1.10;1.00;;;;;;5109875;27;20450;-64
2022/01/05 05:34:29;;;;;;;9.93;2.47;;;1.20;1.00;;;;;;5113823;28;20486;-62
2022/01/05 05:36:55;;;;;;;10.53;2.47;;;1.20;1.00;;;;;;5113871;28;20501;-63
2022/01/05 05:39:22;;;;;;;4.63;2.30;;;1.20;1.00;;;;;;5114350;27;20476;-63
2022/01/05 05:41:49;;;;;;;6.83;2.70;;;1.20;1.00;;;;;;5114054;28;20448;-63
2022/01/05 05:44:16;;;;;;;7.70;2.90;;;1.20;1.00;;;;;;5113658;28;20455;-63
2022/01/05 05:46:44;;;;;;;7.53;2.93;;;1.20;1.00;;;;;;5113651;28;20459;-65
2022/01/05 05:49:10;;;;;;;11.73;2.87;;;1.20;1.00;;;;;;5113660;28;20533;-64
2022/01/05 05:51:37;;;;;;;8.10;2.70;;;1.20;1.00;;;;;;5114118;28;20450;-64
2022/01/05 05:54:04;;;;;;;11.03;3.00;;;1.20;1.00;;;;;;5113951;28;20477;-63
2022/01/05 05:56:31;;;;;;;9.10;2.87;;;1.20;1.00;;;;;;5113641;28;20570;-64
2022/01/05 05:58:58;;;;;;;13.03;2.97;;;1.20;1.00;;;;;;5113776;28;20534;-63
2022/01/05 06:01:25;;;;;;;8.70;2.90;;;1.10;1.00;;;;;;5113195;28;20455;-64
2022/01/05 06:03:53;;;;;;;5.27;1.83;;;1.20;1.00;;;;;;5114170;28;20448;-64
2022/01/05 06:06:20;;;;;;;11.90;3.50;;;1.20;1.00;;;;;;5113754;28;20486;-64
2022/01/05 06:08:46;;;;;;;6.47;2.93;;;1.10;1.00;;;;;;5113706;28;20468;-64
2022/01/05 06:11:13;;;;;;;11.43;3.07;;;1.10;1.00;;;;;;5113730;28;20839;-64
2022/01/05 06:13:40;;;;;;;7.63;3.27;;;1.10;1.00;;;;;;5113103;28;20479;-63
2022/01/05 06:16:07;;;;;;;10.27;3.53;;;1.10;1.00;;;;;;5113217;28;20457;-64
2022/01/05 06:18:33;;;;;;;9.33;3.27;;;1.10;1.00;;;;;;5113246;28;20477;-64
2022/01/05 06:21:01;;;;;;;11.03;3.50;;;1.20;1.00;;;;;;5113063;28;20445;-64
2022/01/05 06:23:28;;;;;;;10.23;3.10;;;1.20;1.00;;;;;;5113271;28;20443;-62
2022/01/05 06:25:55;;;;;;;12.10;2.97;;;1.20;1.00;;;;;;5105960;28;20833;-62
2022/01/05 06:28:21;;;;;;;10.80;3.40;;;1.20;1.00;;;;;;5112377;28;20444;-62
2022/01/05 06:30:48;;;;;;;9.73;3.03;;;1.20;1.00;;;;;;5112177;28;20452;-62
2022/01/05 06:33:15;;;;;;;13.63;3.13;;;1.20;1.00;;;;;;5112848;28;20447;-63
2022/01/05 06:35:41;;;;;;;7.83;3.50;;;1.20;1.00;;;;;;5112629;28;20865;-62
2022/01/05 06:38:10;;;;;;;13.50;3.60;;;1.20;1.00;;;;;;5112384;28;20459;-63
2022/01/05 06:40:36;;;;;;;5.97;2.40;;;1.20;1.00;;;;;;5112710;27;20445;-62
2022/01/05 06:43:03;;;;;;;10.90;3.97;;;1.30;1.00;;;;;;5112450;28;20543;-62
2022/01/05 06:45:30;;;;;;;12.77;4.07;;;1.30;99.90;;;;;;5112863;28;21019;-64
2022/01/05 06:47:58;;;;;;;8.87;2.63;;;1.40;1.00;;;;;;5112843;28;20446;-63
2022/01/05 06:50:25;;;;;;;10.13;3.20;;;1.40;1.00;;;;;;5112206;28;20681;-63
2022/01/05 06:52:55;;;;;;;8.40;3.67;;;1.40;1.00;;;;;;5112500;28;20881;-64
2022/01/05 06:55:23;;;;;;;12.40;3.00;;;1.50;1.00;;;;;;5112796;28;20485;-64
2022/01/05 06:57:51;;;;;;;8.63;2.67;;;1.50;1.00;;;;;;5113606;28;20833;-63
2022/01/05 07:00:20;;;;;;;9.73;3.40;;;1.50;1.00;;;;;;5113388;28;20480;-62
2022/01/05 07:02:46;;;;;;;7.70;3.37;;;1.50;99.90;;;;;;5112335;28;20526;-62
2022/01/05 07:05:13;;;;;;;4.77;2.53;;;1.60;99.90;;;;;;5112390;28;20871;-62
2022/01/05 07:07:40;;;;;;;13.13;3.00;;;1.60;99.90;;;;;;5111699;28;20487;-62
2022/01/05 07:10:07;;;;;;;5.17;2.60;;;1.60;99.90;;;;;;5111855;28;20519;-61
2022/01/05 07:12:37;;;;;;;8.70;2.40;;;1.60;99.90;;;;;;5112266;28;20449;-60
2022/01/05 07:15:04;;;;;;;6.13;2.50;;;1.70;99.90;;;;;;5111831;28;20545;-62
2022/01/05 07:17:31;;;;;;;7.03;2.40;;;1.70;99.90;;;;;;5111807;28;20456;-61
2022/01/05 07:19:57;;;;;;;8.40;2.70;;;1.70;99.90;;;;;;5112113;28;20465;-62
2022/01/05 07:22:24;;;;;;;9.50;2.53;;;1.70;99.90;;;;;;5111785;28;20453;-62
2022/01/05 07:24:52;;;;;;;12.23;3.10;;;1.70;99.90;;;;;;5111888;28;20490;-62
2022/01/05 07:27:18;;;;;;;6.07;1.87;;;1.60;99.90;;;;;;5111518;28;20487;-60
2022/01/05 07:29:46;;;;;;;5.83;2.57;;;1.50;99.90;;;;;;5112042;28;20472;-61
2022/01/05 07:32:13;;;;;;;9.53;3.13;;;1.50;99.90;;;;;;5112016;28;20455;-62
2022/01/05 07:34:40;;;;;;;7.57;2.50;;;1.50;99.90;;;;;;5115888;28;20477;-62
2022/01/05 07:37:07;;;;;;;6.77;3.03;;;1.50;99.90;;;;;;5116038;28;20493;-62
2022/01/05 07:39:34;;;;;;;14.50;3.10;;;1.50;99.90;;;;;;5116407;28;20468;-62
2022/01/05 07:42:01;;;;;;;7.40;3.30;;;1.60;99.90;;;;;;5115976;28;20441;-62
2022/01/05 07:44:27;;;;;;;7.13;3.70;;;1.60;99.90;;;;;;5116082;28;20449;-61
2022/01/05 07:46:55;;;;;;;11.93;2.73;;;1.60;99.90;;;;;;5115163;28;20861;-61
2022/01/05 07:49:22;;;;;;;12.77;3.93;;;1.60;99.90;;;;;;5116054;28;20529;-61
2022/01/05 07:51:49;;;;;;;6.37;2.63;;;1.70;99.90;;;;;;5115436;28;20452;-62
2022/01/05 07:54:15;;;;;;;6.17;2.67;;;1.70;99.90;;;;;;5115961;27;20556;-62
2022/01/05 07:56:42;;;;;;;10.87;3.60;;;1.80;99.90;;;;;;5115513;28;20523;-62
2022/01/05 07:59:08;;;;;;;14.87;3.33;;;1.80;99.90;;;;;;5115460;28;20542;-63
2022/01/05 08:01:35;;;;;;;11.80;3.80;;;1.80;99.90;;;;;;5115995;28;20449;-61
2022/01/05 08:04:04;;;;;;;10.63;3.00;;;1.90;99.90;;;;;;5115419;28;20589;-62
2022/01/05 08:06:30;;;;;;;6.90;2.90;;;1.90;99.90;;;;;;5114983;28;21004;-62
2022/01/05 08:08:57;;;;;;;13.80;3.33;;;1.90;99.90;;;;;;5115351;28;21042;-61
2022/01/05 08:11:23;;;;;;;10.00;2.57;;;2.00;99.90;;;;;;5115512;28;20448;-61
2022/01/05 08:13:52;;;;;;;14.60;3.70;;;2.00;99.90;;;;;;5115563;28;20465;-61
2022/01/05 08:16:19;;;;;;;9.60;3.03;;;2.10;99.90;;;;;;5114875;27;21056;-62
2022/01/05 08:18:45;;;;;;;8.57;3.10;;;2.10;99.90;;;;;;5115041;28;20456;-60
2022/01/05 08:21:14;;;;;;;8.70;2.90;;;2.10;99.90;;;;;;5115174;28;20452;-61
2022/01/05 08:23:41;;;;;;;8.77;2.47;;;2.10;99.90;;;;;;5115364;28;20558;-60
2022/01/05 08:26:07;;;;;;;19.23;3.27;;;2.20;99.90;;;;;;5114968;28;20557;-61
2022/01/05 08:28:35;;;;;;;8.33;2.90;;;2.20;99.90;;;;;;5115244;28;20469;-61
2022/01/05 08:31:02;;;;;;;10.33;3.20;;;2.20;99.90;;;;;;5115588;28;20967;-62
2022/01/05 08:33:28;;;;;;;11.47;3.20;;;2.20;99.90;;;;;;5115976;28;20452;-61
2022/01/05 08:35:55;;;;;;;9.10;2.90;;;2.20;99.90;;;;;;5114673;28;20485;-61
2022/01/05 08:38:24;;;;;;;18.00;3.97;;;2.30;99.90;;;;;;5114975;28;20456;-60
2022/01/05 08:40:50;;;;;;;6.33;2.07;;;2.30;99.90;;;;;;5114673;28;20966;-62
2022/01/05 08:43:17;;;;;;;10.13;2.63;;;2.40;99.90;;;;;;5114800;28;20452;-60
2022/01/05 08:45:44;;;;;;;6.67;2.70;;;2.40;99.90;;;;;;5114710;28;20457;-61
2022/01/05 08:48:11;;;;;;;6.53;2.80;;;2.40;99.90;;;;;;5114307;28;20943;-65
2022/01/05 08:50:38;;;;;;;11.50;3.40;;;2.40;99.90;;;;;;5114905;28;20476;-62
2022/01/05 08:53:05;;;;;;;12.17;3.83;;;2.40;99.90;;;;;;5114710;27;20892;-63
2022/01/05 08:55:36;;;;;;;10.60;3.43;;;2.40;99.90;;;;;;5114856;28;20874;-63
2022/01/05 08:58:04;;;;;;;10.13;3.00;;;2.40;99.90;;;;;;5114607;28;20449;-68
2022/01/05 09:00:30;;;;;;;9.53;3.20;;;2.50;99.90;;;;;;5114109;28;20476;-63
2022/01/05 09:02:57;;;;;;;12.87;3.47;;;2.40;99.90;;;;;;5115006;28;20464;-63
2022/01/05 09:05:24;;;;;;;11.67;3.10;;;2.40;99.90;;;;;;5114207;28;20445;-65
2022/01/05 09:07:51;;;;;;;11.50;3.47;;;2.50;99.90;;;;;;5114332;28;20450;-63
2022/01/05 09:10:17;;;;;;;6.23;3.27;;;2.50;99.90;;;;;;5114528;28;20526;-62
2022/01/05 09:12:46;;;;;;;8.13;2.67;;;2.50;99.90;;;;;;5114204;28;20453;-63
2022/01/05 09:15:12;;;;;;;14.43;4.20;;;2.50;99.90;;;;;;5113731;27;20481;-62
2022/01/05 09:17:39;;;;;;;9.90;3.90;;;2.50;99.90;;;;;;5113925;28;20452;-63
2022/01/05 09:20:07;;;;;;;8.87;3.13;;;2.60;99.90;;;;;;5114625;28;20473;-62
2022/01/05 09:22:37;;;;;;;8.80;3.97;;;2.60;99.90;;;;;;5114171;28;21183;-63
2022/01/05 09:25:05;;;;;;;4.17;2.03;;;2.70;99.90;;;;;;5113930;28;20457;-61
2022/01/05 09:27:32;;;;;;;12.97;4.63;;;2.70;99.90;;;;;;5113677;27;20449;-64
2022/01/05 09:30:00;;;;;;;10.87;4.27;;;2.70;99.90;;;;;;5114079;28;20469;-61
2022/01/05 09:32:27;;;;;;;9.43;3.93;;;2.70;99.90;;;;;;5115026;28;21223;-64
2022/01/05 09:34:54;;;;;;;7.53;3.90;;;2.70;99.90;;;;;;5114298;28;20848;-65
2022/01/05 09:37:24;;;;;;;12.73;5.40;;;2.70;99.90;;;;;;5113752;28;20460;-64
2022/01/05 09:42:36;;;;;;;15.10;4.60;;;2.80;99.90;;;;;;5113777;28;20453;-65
2022/01/05 09:45:18;;;;;;;11.27;4.90;;;2.80;99.90;;;;;;5113768;28;20978;-64
2022/01/05 09:47:55;;;;;;;11.47;5.60;;;2.80;99.90;;;;;;5113393;28;20449;-63
2022/01/05 09:50:24;;;;;;;6.20;4.33;;;2.80;99.90;;;;;;5113642;28;20461;-64
2022/01/05 09:52:50;;;;;;;10.30;5.40;;;2.90;99.90;;;;;;5113376;28;20503;-63
2022/01/05 09:55:17;;;;;;;11.70;5.57;;;2.80;99.90;;;;;;5112494;28;20862;-63
2022/01/05 09:57:47;;;;;;;11.13;5.03;;;2.90;99.90;;;;;;5113509;28;20460;-62
2022/01/05 10:00:17;;;;;;;14.17;5.20;;;2.90;99.90;;;;;;5113110;28;20465;-65
2022/01/05 10:02:45;;;;;;;9.13;5.10;;;3.00;99.90;;;;;;5113459;28;20446;-64
2022/01/05 10:05:13;;;;;;;9.50;4.43;;;3.10;99.90;;;;;;5113175;28;20477;-64
2022/01/05 10:07:41;;;;;;;15.17;5.43;;;3.10;99.90;;;;;;5113126;28;20452;-63
2022/01/05 10:10:09;;;;;;;9.17;5.23;;;3.10;99.90;;;;;;5113387;28;20472;-64
2022/01/05 10:12:36;;;;;;;14.93;5.30;;;3.10;99.90;;;;;;5113156;28;20449;-64
2022/01/05 10:15:04;;;;;;;16.07;5.67;;;3.10;99.90;;;;;;5113754;28;20990;-64
2022/01/05 10:17:34;;;;;;;14.77;4.67;;;3.10;99.90;;;;;;5116303;27;21004;-65
2022/01/05 10:20:05;;;;;;;5.03;2.67;;;3.10;99.90;;;;;;5113171;28;20469;-66
2022/01/05 10:22:33;;;;;;;12.52;5.75;;;3.10;99.90;;;;;;5112033;28;20416;-65
2022/01/05 10:25:08;;;;;;;16.02;5.80;;;3.00;99.90;;;;;;5111531;27;20453;-64
2022/01/05 10:27:36;;;;;;;13.80;6.25;;;3.20;99.90;;;;;;5112172;27;20408;-62
2022/01/05 10:30:06;;;;;;;15.88;7.32;;;3.30;99.90;;;;;;5111952;28;20917;-62
2022/01/05 10:32:35;;;;;;;12.67;5.20;;;3.20;99.90;;;;;;5113783;27;20241;-62
2022/01/05 10:35:08;;;;;;;11.30;4.83;;;3.10;99.90;;;;;;5112896;28;20260;-62
2022/01/05 10:37:37;;;;;;;6.23;3.47;;;3.00;99.90;;;;;;5112911;28;20450;-63
2022/01/05 10:40:07;;;;;;;8.40;3.40;;;3.00;99.90;;;;;;5113430;28;20469;-61
2022/01/05 10:42:34;;;;;;;8.17;3.90;;;3.00;99.90;;;;;;5112321;28;20483;-63
2022/01/05 10:45:05;;;;;;;10.40;4.20;;;2.90;99.90;;;;;;5112663;28;20449;-62
2022/01/05 10:47:33;;;;;;;7.90;3.73;;;2.90;1.00;;;;;;5112739;28;20524;-63
2022/01/05 10:50:00;;;;;;;9.40;4.43;;;2.90;1.00;;;;;;5112346;28;20552;-63
2022/01/05 10:52:29;;;;;;;11.10;4.57;;;3.00;1.00;;;;;;5112372;28;20450;-65
2022/01/05 10:54:57;;;;;;;8.43;3.77;;;2.90;1.00;;;;;;5105655;28;20485;-63
2022/01/05 10:57:23;;;;;;;12.40;5.07;;;2.90;1.00;;;;;;5107713;28;20453;-62
2022/01/05 10:59:53;;;;;;;6.23;3.23;;;2.80;1.00;;;;;;5112474;28;20472;-62
2022/01/05 11:02:21;;;;;;;13.33;4.70;;;2.90;1.00;;;;;;5111970;28;20816;-65
2022/01/05 11:04:49;;;;;;;8.37;2.57;;;2.80;1.00;;;;;;5112455;28;20552;-65
2022/01/05 11:07:20;;;;;;;9.43;4.23;;;2.90;1.00;;;;;;5111442;28;20479;-63
2022/01/05 11:09:53;;;;;;;10.90;4.73;;;2.90;1.00;;;;;;5111930;28;21024;-63
2022/01/05 11:12:20;;;;;;;11.97;4.50;;;2.80;1.00;;;;;;5112331;28;20502;-63
2022/01/05 11:14:47;;;;;;;12.27;4.70;;;2.80;1.00;;;;;;5111552;28;21168;-63
2022/01/05 11:17:17;;;;;;;12.07;3.97;;;2.70;1.00;;;;;;5111737;28;20438;-61
2022/01/05 11:19:44;;;;;;;9.27;3.53;;;2.80;1.00;;;;;;5111784;28;20561;-61
2022/01/05 11:22:14;;;;;;;6.07;3.63;;;2.80;1.00;;;;;;5112024;28;20515;-61
2022/01/05 11:24:43;;;;;;;9.73;5.07;;;2.80;1.00;;;;;;5112299;28;20833;-61
2022/01/05 11:27:12;;;;;;;8.90;4.10;;;2.70;1.00;;;;;;5111516;28;20507;-62
2022/01/05 11:29:39;;;;;;;5.13;3.10;;;2.80;1.00;;;;;;5111815;28;20526;-63
2022/01/05 11:32:08;;;;;;;6.90;4.17;;;2.80;1.00;;;;;;5112025;28;20437;-60
2022/01/05 11:34:35;;;;;;;6.40;4.17;;;2.80;1.00;;;;;;5112164;28;20445;-61
2022/01/05 11:37:02;;;;;;;9.13;4.13;;;2.70;1.00;;;;;;5111567;28;20502;-61
2022/01/05 11:39:34;;;;;;;8.53;4.70;;;2.80;1.00;;;;;;5112845;28;20926;-63
2022/01/05 11:42:07;;;;;;;10.13;4.43;;;2.80;1.00;;;;;;5112293;28;20449;-63
2022/01/05 11:44:44;;;;;;;14.87;4.33;;;2.80;1.00;;;;;;5111594;28;20628;-64
2022/01/05 11:47:23;;;;;;;7.17;3.47;;;2.70;1.00;;;;;;5111913;28;20914;-62
2022/01/05 11:50:17;;;;;;;10.90;4.77;;;2.80;1.00;;;;;;5112334;28;20520;-62
2022/01/05 11:52:55;;;;;;;10.97;5.23;;;2.80;1.00;;;;;;5111351;28;20545;-63
2022/01/05 11:55:24;;;;;;;8.40;3.73;;;2.70;1.00;;;;;;5111814;28;20526;-63
2022/01/05 11:58:16;;;;;;;8.50;5.00;;;2.70;1.00;;;;;;5111401;28;20451;-62
2022/01/05 12:00:44;;;;;;;9.50;4.97;;;2.80;1.00;;;;;;5112293;28;20842;-62
2022/01/05 12:03:11;;;;;;;12.00;5.90;;;2.70;1.00;;;;;;5111655;28;20868;-62
2022/01/05 12:06:04;;;;;;;13.20;5.43;;;2.80;1.00;;;;;;5111675;28;20855;-63
2022/01/05 12:08:42;;;;;;;11.57;5.10;;;2.90;1.00;;;;;;5103991;28;20917;-63
2022/01/05 12:11:28;;;;;;;10.77;5.23;;;2.90;1.00;;;;;;5111583;28;20503;-63
2022/01/05 12:13:54;;;;;;;10.60;4.80;;;3.00;1.00;;;;;;5111769;28;20469;-63
2022/01/05 12:16:22;;;;;;;11.60;5.50;;;3.00;1.00;;;;;;5110732;28;20815;-62
2022/01/05 12:19:04;;;;;;;13.70;5.67;;;3.00;1.00;;;;;;5111716;28;20474;-62
2022/01/05 12:21:45;;;;;;;13.63;6.07;;;3.00;1.00;;;;;;5116418;27;20441;-63
2022/01/05 12:24:12;;;;;;;20.27;6.33;;;3.10;1.00;;;;;;5116081;27;20494;-63
2022/01/05 12:27:50;;;;;;;12.57;6.23;;;3.10;1.00;;;;;;5116040;27;21121;-68
2022/01/05 12:31:07;;;;;;;;;;;;;;;;;;;;;
2022/01/05 12:33:44;;;;;;;7.03;3.23;;;3.50;1.00;;;;;;5052168;28;20611;-69
2022/01/05 12:36:14;;;;;;;7.77;4.50;;;3.50;1.00;;;;;;5051148;28;20286;-67
2022/01/05 12:38:54;;;;;;;16.63;6.60;;;3.70;1.00;;;;;;5051932;28;20468;-68
2022/01/05 12:41:32;;;;;;;14.13;6.10;;;3.80;1.00;;;;;;5079403;28;20662;-61
2022/01/05 12:44:05;;;;;;;10.97;5.13;;;3.70;1.00;;;;;;5115246;28;20831;-62
2022/01/05 12:46:43;;;;;;;12.80;6.10;;;3.70;1.00;;;;;;5114756;28;20211;-61
2022/01/05 12:49:14;;;;;;;10.30;7.13;;;3.60;1.00;;;;;;5114480;28;20479;-62
2022/01/05 12:51:47;;;;;;;13.70;6.73;;;3.50;1.00;;;;;;5114742;28;20468;-62
2022/01/05 12:54:18;;;;;;;12.77;6.37;;;3.50;1.00;;;;;;5114769;28;20243;-61
2022/01/05 12:56:48;;;;;;;14.67;7.03;;;3.60;1.00;;;;;;5114389;28;20472;-61
2022/01/05 12:59:21;;;;;;;17.33;6.60;;;3.60;1.00;;;;;;5114487;28;20714;-61
2022/01/05 13:01:49;;;;;;;26.07;6.83;;;3.60;1.00;;;;;;5114618;28;20273;-62
2022/01/05 13:04:18;;;;;;;16.17;5.57;;;3.70;1.00;;;;;;5114465;28;20211;-62
2022/01/05 13:06:45;;;;;;;11.07;6.03;;;3.70;1.00;;;;;;5114340;28;20220;-62
2022/01/05 13:09:13;;;;;;;17.63;6.27;;;3.70;1.00;;;;;;5114760;28;20276;-62